sensor_id;sensor_type;location;lat;lon;timestamp;P1;durP1;ratioP1;P2;durP2;ratioP2
64710;SDS011;51139;45.626;6.850;2023-06-22T00:01:48;11.35;;;3.25;;
64710;SDS011;51139;45.626;6.850;2023-06-22T00:04:13;12.40;;;3.03;;
64710;SDS011;51139;45.626;6.850;2023-06-22T00:06:38;10.75;;;3.20;;
64710;SDS011;51139;45.626;6.850;2023-06-22T00:09:04;11.30;;;3.22;;
64710;SDS011;51139;45.626;6.850;2023-06-22T00:11:31;10.02;;;2.72;;
64710;SDS011;51139;45.626;6.850;2023-06-22T00:13:58;12.95;;;2.90;;
64710;SDS011;51139;45.626;6.850;2023-06-22T00:16:24;13.20;;;2.97;;
64710;SDS011;51139;45.626;6.850;2023-06-22T00:18:49;9.75;;;3.17;;
64710;SDS011;51139;45.626;6.850;2023-06-22T00:21:14;10.73;;;3.17;;
64710;SDS011;51139;45.626;6.850;2023-06-22T00:23:40;12.20;;;2.88;;
64710;SDS011;51139;45.626;6.850;2023-06-22T00:26:06;11.65;;;3.20;;
64710;SDS011;51139;45.626;6.850;2023-06-22T00:28:32;12.63;;;2.92;;
64710;SDS011;51139;45.626;6.850;2023-06-22T00:30:57;13.75;;;3.38;;
64710;SDS011;51139;45.626;6.850;2023-06-22T00:33:23;12.25;;;3.40;;
64710;SDS011;51139;45.626;6.850;2023-06-22T00:35:48;12.10;;;2.83;;
64710;SDS011;51139;45.626;6.850;2023-06-22T00:38:17;16.13;;;3.53;;
64710;SDS011;51139;45.626;6.850;2023-06-22T00:40:42;8.95;;;2.90;;
64710;SDS011;51139;45.626;6.850;2023-06-22T00:43:08;8.63;;;3.00;;
64710;SDS011;51139;45.626;6.850;2023-06-22T00:45:33;9.40;;;3.33;;
64710;SDS011;51139;45.626;6.850;2023-06-22T00:47:59;15.02;;;2.83;;
64710;SDS011;51139;45.626;6.850;2023-06-22T00:50:26;11.63;;;2.83;;
64710;SDS011;51139;45.626;6.850;2023-06-22T00:52:57;10.95;;;3.22;;
64710;SDS011;51139;45.626;6.850;2023-06-22T00:55:24;10.85;;;2.90;;
64710;SDS011;51139;45.626;6.850;2023-06-22T00:57:53;12.90;;;2.97;;
64710;SDS011;51139;45.626;6.850;2023-06-22T01:00:22;14.82;;;3.25;;
64710;SDS011;51139;45.626;6.850;2023-06-22T01:02:50;12.00;;;3.22;;
64710;SDS011;51139;45.626;6.850;2023-06-22T01:05:18;12.48;;;3.15;;
64710;SDS011;51139;45.626;6.850;2023-06-22T01:12:55;13.57;;;3.08;;
64710;SDS011;51139;45.626;6.850;2023-06-22T01:15:33;16.02;;;3.50;;
64710;SDS011;51139;45.626;6.850;2023-06-22T01:18:04;10.10;;;3.13;;
64710;SDS011;51139;45.626;6.850;2023-06-22T01:20:34;13.25;;;3.50;;
64710;SDS011;51139;45.626;6.850;2023-06-22T01:25:31;15.32;;;2.80;;
64710;SDS011;51139;45.626;6.850;2023-06-22T01:30:34;11.00;;;2.92;;
64710;SDS011;51139;45.626;6.850;2023-06-22T01:33:00;16.40;;;4.20;;
64710;SDS011;51139;45.626;6.850;2023-06-22T01:35:28;12.52;;;3.05;;
64710;SDS011;51139;45.626;6.850;2023-06-22T01:37:54;14.82;;;3.15;;
64710;SDS011;51139;45.626;6.850;2023-06-22T01:40:20;13.73;;;2.95;;
64710;SDS011;51139;45.626;6.850;2023-06-22T01:42:46;15.73;;;4.03;;
64710;SDS011;51139;45.626;6.850;2023-06-22T01:45:13;13.40;;;3.00;;
64710;SDS011;51139;45.626;6.850;2023-06-22T01:47:39;11.07;;;3.92;;
64710;SDS011;51139;45.626;6.850;2023-06-22T01:50:06;14.65;;;2.70;;
64710;SDS011;51139;45.626;6.850;2023-06-22T01:52:32;11.63;;;2.78;;
64710;SDS011;51139;45.626;6.850;2023-06-22T01:54:59;14.50;;;2.97;;
64710;SDS011;51139;45.626;6.850;2023-06-22T01:57:25;12.98;;;3.40;;
64710;SDS011;51139;45.626;6.850;2023-06-22T02:02:20;13.68;;;3.25;;
64710;SDS011;51139;45.626;6.850;2023-06-22T02:04:54;11.88;;;3.00;;
64710;SDS011;51139;45.626;6.850;2023-06-22T02:07:23;12.77;;;3.10;;
64710;SDS011;51139;45.626;6.850;2023-06-22T02:09:53;13.02;;;2.83;;
64710;SDS011;51139;45.626;6.850;2023-06-22T02:12:22;14.50;;;2.90;;
64710;SDS011;51139;45.626;6.850;2023-06-22T02:14:50;12.57;;;2.90;;
64710;SDS011;51139;45.626;6.850;2023-06-22T02:17:17;10.63;;;2.85;;
64710;SDS011;51139;45.626;6.850;2023-06-22T02:19:43;13.57;;;3.80;;
64710;SDS011;51139;45.626;6.850;2023-06-22T02:22:08;12.48;;;2.90;;
64710;SDS011;51139;45.626;6.850;2023-06-22T02:24:34;12.70;;;3.00;;
64710;SDS011;51139;45.626;6.850;2023-06-22T02:26:59;11.27;;;2.88;;
64710;SDS011;51139;45.626;6.850;2023-06-22T02:29:26;13.63;;;3.10;;
64710;SDS011;51139;45.626;6.850;2023-06-22T02:31:52;15.23;;;3.20;;
64710;SDS011;51139;45.626;6.850;2023-06-22T02:34:18;13.02;;;2.70;;
64710;SDS011;51139;45.626;6.850;2023-06-22T02:36:47;13.63;;;3.38;;
64710;SDS011;51139;45.626;6.850;2023-06-22T02:39:24;14.07;;;3.55;;
64710;SDS011;51139;45.626;6.850;2023-06-22T02:41:53;16.00;;;3.15;;
64710;SDS011;51139;45.626;6.850;2023-06-22T02:44:19;13.25;;;3.15;;
64710;SDS011;51139;45.626;6.850;2023-06-22T02:46:46;10.00;;;2.50;;
64710;SDS011;51139;45.626;6.850;2023-06-22T02:49:12;16.63;;;3.63;;
64710;SDS011;51139;45.626;6.850;2023-06-22T02:51:38;13.38;;;3.25;;
64710;SDS011;51139;45.626;6.850;2023-06-22T02:54:06;14.90;;;3.15;;
64710;SDS011;51139;45.626;6.850;2023-06-22T02:56:32;12.00;;;2.75;;
64710;SDS011;51139;45.626;6.850;2023-06-22T02:58:57;14.95;;;3.17;;
64710;SDS011;51139;45.626;6.850;2023-06-22T03:01:26;12.00;;;2.85;;
64710;SDS011;51139;45.626;6.850;2023-06-22T03:03:52;13.10;;;3.25;;
64710;SDS011;51139;45.626;6.850;2023-06-22T03:06:18;11.65;;;3.30;;
64710;SDS011;51139;45.626;6.850;2023-06-22T03:08:51;14.98;;;3.00;;
64710;SDS011;51139;45.626;6.850;2023-06-22T03:11:16;11.85;;;2.95;;
64710;SDS011;51139;45.626;6.850;2023-06-22T03:13:42;12.10;;;3.00;;
64710;SDS011;51139;45.626;6.850;2023-06-22T03:16:08;12.27;;;3.17;;
64710;SDS011;51139;45.626;6.850;2023-06-22T03:18:33;10.52;;;2.75;;
64710;SDS011;51139;45.626;6.850;2023-06-22T03:20:59;11.38;;;2.80;;
64710;SDS011;51139;45.626;6.850;2023-06-22T03:23:25;13.05;;;3.28;;
64710;SDS011;51139;45.626;6.850;2023-06-22T03:25:50;15.82;;;3.17;;
64710;SDS011;51139;45.626;6.850;2023-06-22T03:28:15;9.55;;;2.95;;
64710;SDS011;51139;45.626;6.850;2023-06-22T03:30:41;11.85;;;3.33;;
64710;SDS011;51139;45.626;6.850;2023-06-22T03:33:06;12.73;;;2.83;;
64710;SDS011;51139;45.626;6.850;2023-06-22T03:35:31;15.90;;;2.92;;
64710;SDS011;51139;45.626;6.850;2023-06-22T03:37:57;11.80;;;2.55;;
64710;SDS011;51139;45.626;6.850;2023-06-22T03:40:22;12.88;;;2.63;;
64710;SDS011;51139;45.626;6.850;2023-06-22T03:42:47;10.98;;;2.75;;
64710;SDS011;51139;45.626;6.850;2023-06-22T03:45:13;18.27;;;3.70;;
64710;SDS011;51139;45.626;6.850;2023-06-22T03:47:38;15.15;;;2.85;;
64710;SDS011;51139;45.626;6.850;2023-06-22T03:50:04;13.43;;;3.20;;
64710;SDS011;51139;45.626;6.850;2023-06-22T03:52:31;40.17;;;5.75;;
64710;SDS011;51139;45.626;6.850;2023-06-22T03:54:56;13.52;;;3.50;;
64710;SDS011;51139;45.626;6.850;2023-06-22T03:57:21;11.80;;;3.28;;
64710;SDS011;51139;45.626;6.850;2023-06-22T03:59:47;15.30;;;3.70;;
64710;SDS011;51139;45.626;6.850;2023-06-22T04:02:12;13.68;;;3.17;;
64710;SDS011;51139;45.626;6.850;2023-06-22T04:04:37;13.85;;;3.88;;
64710;SDS011;51139;45.626;6.850;2023-06-22T04:07:04;14.68;;;3.72;;
64710;SDS011;51139;45.626;6.850;2023-06-22T04:09:29;14.38;;;3.97;;
64710;SDS011;51139;45.626;6.850;2023-06-22T04:11:55;11.15;;;3.00;;
64710;SDS011;51139;45.626;6.850;2023-06-22T04:14:20;13.95;;;3.85;;
64710;SDS011;51139;45.626;6.850;2023-06-22T04:16:45;13.15;;;3.30;;
64710;SDS011;51139;45.626;6.850;2023-06-22T04:19:11;13.65;;;3.53;;
64710;SDS011;51139;45.626;6.850;2023-06-22T04:21:41;14.43;;;3.60;;
64710;SDS011;51139;45.626;6.850;2023-06-22T04:24:07;10.82;;;3.17;;
64710;SDS011;51139;45.626;6.850;2023-06-22T04:26:32;13.73;;;3.60;;
64710;SDS011;51139;45.626;6.850;2023-06-22T04:29:02;14.38;;;3.13;;
64710;SDS011;51139;45.626;6.850;2023-06-22T04:31:30;14.77;;;3.53;;
64710;SDS011;51139;45.626;6.850;2023-06-22T04:33:57;12.25;;;3.30;;
64710;SDS011;51139;45.626;6.850;2023-06-22T04:36:23;17.08;;;3.60;;
64710;SDS011;51139;45.626;6.850;2023-06-22T04:38:48;12.25;;;3.78;;
64710;SDS011;51139;45.626;6.850;2023-06-22T04:41:17;17.83;;;3.83;;
64710;SDS011;51139;45.626;6.850;2023-06-22T04:43:48;15.73;;;3.38;;
64710;SDS011;51139;45.626;6.850;2023-06-22T04:46:18;16.85;;;3.65;;
64710;SDS011;51139;45.626;6.850;2023-06-22T04:48:44;14.05;;;3.42;;
64710;SDS011;51139;45.626;6.850;2023-06-22T04:51:09;14.30;;;3.15;;
64710;SDS011;51139;45.626;6.850;2023-06-22T04:53:35;13.55;;;3.10;;
64710;SDS011;51139;45.626;6.850;2023-06-22T04:56:00;13.23;;;3.60;;
64710;SDS011;51139;45.626;6.850;2023-06-22T04:58:29;11.75;;;3.72;;
64710;SDS011;51139;45.626;6.850;2023-06-22T05:00:57;13.57;;;3.55;;
64710;SDS011;51139;45.626;6.850;2023-06-22T05:03:24;13.88;;;3.10;;
64710;SDS011;51139;45.626;6.850;2023-06-22T05:05:51;21.50;;;4.18;;
64710;SDS011;51139;45.626;6.850;2023-06-22T05:08:17;17.85;;;3.63;;
64710;SDS011;51139;45.626;6.850;2023-06-22T05:10:43;20.35;;;3.33;;
64710;SDS011;51139;45.626;6.850;2023-06-22T05:13:08;11.55;;;3.03;;
64710;SDS011;51139;45.626;6.850;2023-06-22T05:15:33;11.10;;;3.33;;
64710;SDS011;51139;45.626;6.850;2023-06-22T05:18:04;18.35;;;4.10;;
64710;SDS011;51139;45.626;6.850;2023-06-22T05:20:30;15.27;;;3.00;;
64710;SDS011;51139;45.626;6.850;2023-06-22T05:22:55;12.05;;;3.13;;
64710;SDS011;51139;45.626;6.850;2023-06-22T05:25:21;12.68;;;3.47;;
64710;SDS011;51139;45.626;6.850;2023-06-22T05:27:46;10.48;;;2.92;;
64710;SDS011;51139;45.626;6.850;2023-06-22T05:30:12;15.90;;;3.35;;
64710;SDS011;51139;45.626;6.850;2023-06-22T05:32:37;12.25;;;3.35;;
64710;SDS011;51139;45.626;6.850;2023-06-22T05:35:03;14.43;;;3.17;;
64710;SDS011;51139;45.626;6.850;2023-06-22T05:37:29;14.02;;;3.20;;
64710;SDS011;51139;45.626;6.850;2023-06-22T05:39:54;13.43;;;3.25;;
64710;SDS011;51139;45.626;6.850;2023-06-22T05:42:21;16.05;;;3.40;;
64710;SDS011;51139;45.626;6.850;2023-06-22T05:44:46;11.68;;;2.92;;
64710;SDS011;51139;45.626;6.850;2023-06-22T05:47:12;13.48;;;3.05;;
64710;SDS011;51139;45.626;6.850;2023-06-22T05:49:37;17.40;;;3.67;;
64710;SDS011;51139;45.626;6.850;2023-06-22T05:52:03;10.23;;;2.75;;
64710;SDS011;51139;45.626;6.850;2023-06-22T05:54:29;20.20;;;3.88;;
64710;SDS011;51139;45.626;6.850;2023-06-22T05:56:55;20.08;;;3.88;;
64710;SDS011;51139;45.626;6.850;2023-06-22T05:59:20;10.77;;;3.05;;
64710;SDS011;51139;45.626;6.850;2023-06-22T06:01:45;9.70;;;2.97;;
64710;SDS011;51139;45.626;6.850;2023-06-22T06:04:14;17.10;;;3.17;;
64710;SDS011;51139;45.626;6.850;2023-06-22T06:06:40;11.15;;;3.30;;
64710;SDS011;51139;45.626;6.850;2023-06-22T06:09:06;10.32;;;2.80;;
64710;SDS011;51139;45.626;6.850;2023-06-22T06:11:32;9.65;;;3.08;;
64710;SDS011;51139;45.626;6.850;2023-06-22T06:13:59;14.75;;;4.03;;
64710;SDS011;51139;45.626;6.850;2023-06-22T06:16:24;20.48;;;3.65;;
64710;SDS011;51139;45.626;6.850;2023-06-22T06:18:50;17.77;;;3.55;;
64710;SDS011;51139;45.626;6.850;2023-06-22T06:21:15;19.23;;;3.53;;
64710;SDS011;51139;45.626;6.850;2023-06-22T06:23:41;15.65;;;3.47;;
64710;SDS011;51139;45.626;6.850;2023-06-22T06:26:07;21.60;;;4.18;;
64710;SDS011;51139;45.626;6.850;2023-06-22T06:28:32;13.77;;;3.58;;
64710;SDS011;51139;45.626;6.850;2023-06-22T06:30:58;13.80;;;3.60;;
64710;SDS011;51139;45.626;6.850;2023-06-22T06:33:24;16.52;;;3.85;;
64710;SDS011;51139;45.626;6.850;2023-06-22T06:35:49;13.32;;;3.50;;
64710;SDS011;51139;45.626;6.850;2023-06-22T06:38:15;12.57;;;3.83;;
64710;SDS011;51139;45.626;6.850;2023-06-22T06:40:40;25.38;;;5.07;;
64710;SDS011;51139;45.626;6.850;2023-06-22T06:43:06;17.10;;;3.58;;
64710;SDS011;51139;45.626;6.850;2023-06-22T06:45:31;12.13;;;3.78;;
64710;SDS011;51139;45.626;6.850;2023-06-22T06:47:59;14.32;;;4.05;;
64710;SDS011;51139;45.626;6.850;2023-06-22T06:50:25;10.55;;;3.40;;
64710;SDS011;51139;45.626;6.850;2023-06-22T06:52:50;10.30;;;3.47;;
64710;SDS011;51139;45.626;6.850;2023-06-22T06:55:16;14.23;;;3.38;;
64710;SDS011;51139;45.626;6.850;2023-06-22T06:57:41;11.50;;;3.10;;
64710;SDS011;51139;45.626;6.850;2023-06-22T07:00:08;15.57;;;3.92;;
64710;SDS011;51139;45.626;6.850;2023-06-22T07:02:40;12.88;;;3.15;;
64710;SDS011;51139;45.626;6.850;2023-06-22T07:05:10;11.52;;;3.30;;
64710;SDS011;51139;45.626;6.850;2023-06-22T07:07:36;18.48;;;4.20;;
64710;SDS011;51139;45.626;6.850;2023-06-22T07:10:02;21.27;;;3.72;;
64710;SDS011;51139;45.626;6.850;2023-06-22T07:12:28;14.48;;;3.60;;
64710;SDS011;51139;45.626;6.850;2023-06-22T07:14:53;32.47;;;5.32;;
64710;SDS011;51139;45.626;6.850;2023-06-22T07:17:19;34.35;;;6.22;;
64710;SDS011;51139;45.626;6.850;2023-06-22T07:19:44;18.52;;;3.47;;
64710;SDS011;51139;45.626;6.850;2023-06-22T07:22:10;12.38;;;3.28;;
64710;SDS011;51139;45.626;6.850;2023-06-22T07:24:35;15.20;;;3.92;;
64710;SDS011;51139;45.626;6.850;2023-06-22T07:27:01;17.60;;;3.83;;
64710;SDS011;51139;45.626;6.850;2023-06-22T07:29:28;20.33;;;4.05;;
64710;SDS011;51139;45.626;6.850;2023-06-22T07:31:54;13.77;;;3.75;;
64710;SDS011;51139;45.626;6.850;2023-06-22T07:34:21;12.02;;;3.05;;
64710;SDS011;51139;45.626;6.850;2023-06-22T07:36:47;16.58;;;3.60;;
64710;SDS011;51139;45.626;6.850;2023-06-22T07:39:12;20.02;;;3.58;;
64710;SDS011;51139;45.626;6.850;2023-06-22T07:41:38;11.35;;;3.55;;
64710;SDS011;51139;45.626;6.850;2023-06-22T07:44:05;12.48;;;3.67;;
64710;SDS011;51139;45.626;6.850;2023-06-22T07:46:31;15.57;;;3.67;;
64710;SDS011;51139;45.626;6.850;2023-06-22T07:48:57;13.52;;;3.22;;
64710;SDS011;51139;45.626;6.850;2023-06-22T07:51:22;12.75;;;3.38;;
64710;SDS011;51139;45.626;6.850;2023-06-22T07:53:48;10.55;;;3.45;;
64710;SDS011;51139;45.626;6.850;2023-06-22T07:56:14;14.38;;;3.65;;
64710;SDS011;51139;45.626;6.850;2023-06-22T07:58:43;15.73;;;3.30;;
64710;SDS011;51139;45.626;6.850;2023-06-22T08:01:09;14.10;;;3.80;;
64710;SDS011;51139;45.626;6.850;2023-06-22T08:03:35;11.80;;;3.50;;
64710;SDS011;51139;45.626;6.850;2023-06-22T08:06:00;17.23;;;4.43;;
64710;SDS011;51139;45.626;6.850;2023-06-22T08:08:26;14.07;;;3.47;;
64710;SDS011;51139;45.626;6.850;2023-06-22T08:10:51;14.20;;;3.67;;
64710;SDS011;51139;45.626;6.850;2023-06-22T08:13:16;15.20;;;3.28;;
64710;SDS011;51139;45.626;6.850;2023-06-22T08:15:42;11.98;;;4.15;;
64710;SDS011;51139;45.626;6.850;2023-06-22T08:18:07;12.18;;;3.83;;
64710;SDS011;51139;45.626;6.850;2023-06-22T08:20:33;16.23;;;3.40;;
64710;SDS011;51139;45.626;6.850;2023-06-22T08:22:58;10.48;;;3.55;;
64710;SDS011;51139;45.626;6.850;2023-06-22T08:25:30;14.93;;;3.83;;
64710;SDS011;51139;45.626;6.850;2023-06-22T08:27:55;12.27;;;3.65;;
64710;SDS011;51139;45.626;6.850;2023-06-22T08:30:20;17.10;;;3.65;;
64710;SDS011;51139;45.626;6.850;2023-06-22T08:32:46;12.55;;;3.72;;
64710;SDS011;51139;45.626;6.850;2023-06-22T08:35:11;17.23;;;3.47;;
64710;SDS011;51139;45.626;6.850;2023-06-22T08:37:37;9.57;;;3.45;;
64710;SDS011;51139;45.626;6.850;2023-06-22T08:40:04;14.07;;;3.72;;
64710;SDS011;51139;45.626;6.850;2023-06-22T08:42:35;15.77;;;3.35;;
64710;SDS011;51139;45.626;6.850;2023-06-22T08:45:01;15.10;;;4.45;;
64710;SDS011;51139;45.626;6.850;2023-06-22T08:47:27;15.45;;;3.90;;
64710;SDS011;51139;45.626;6.850;2023-06-22T08:49:53;11.35;;;3.63;;
64710;SDS011;51139;45.626;6.850;2023-06-22T08:52:19;11.63;;;3.20;;
64710;SDS011;51139;45.626;6.850;2023-06-22T08:54:45;25.33;;;4.97;;
64710;SDS011;51139;45.626;6.850;2023-06-22T08:57:13;28.02;;;4.10;;
64710;SDS011;51139;45.626;6.850;2023-06-22T08:59:38;15.48;;;3.78;;
64710;SDS011;51139;45.626;6.850;2023-06-22T09:02:05;15.25;;;4.00;;
64710;SDS011;51139;45.626;6.850;2023-06-22T09:04:30;11.63;;;3.28;;
64710;SDS011;51139;45.626;6.850;2023-06-22T09:06:59;16.17;;;3.92;;
64710;SDS011;51139;45.626;6.850;2023-06-22T09:09:25;13.95;;;3.67;;
64710;SDS011;51139;45.626;6.850;2023-06-22T09:11:50;19.80;;;3.95;;
64710;SDS011;51139;45.626;6.850;2023-06-22T09:14:16;18.02;;;4.57;;
64710;SDS011;51139;45.626;6.850;2023-06-22T09:16:41;16.52;;;3.90;;
64710;SDS011;51139;45.626;6.850;2023-06-22T09:19:07;18.15;;;4.18;;
64710;SDS011;51139;45.626;6.850;2023-06-22T09:21:32;16.40;;;4.10;;
64710;SDS011;51139;45.626;6.850;2023-06-22T09:23:58;12.30;;;3.35;;
64710;SDS011;51139;45.626;6.850;2023-06-22T09:26:23;15.45;;;3.95;;
64710;SDS011;51139;45.626;6.850;2023-06-22T09:28:49;12.88;;;4.45;;
64710;SDS011;51139;45.626;6.850;2023-06-22T09:31:14;16.58;;;3.67;;
64710;SDS011;51139;45.626;6.850;2023-06-22T09:33:41;15.55;;;4.10;;
64710;SDS011;51139;45.626;6.850;2023-06-22T09:36:07;16.00;;;4.78;;
64710;SDS011;51139;45.626;6.850;2023-06-22T09:38:36;14.40;;;3.40;;
64710;SDS011;51139;45.626;6.850;2023-06-22T09:41:01;14.43;;;3.65;;
64710;SDS011;51139;45.626;6.850;2023-06-22T09:43:27;10.98;;;3.03;;
64710;SDS011;51139;45.626;6.850;2023-06-22T09:45:53;11.57;;;2.97;;
64710;SDS011;51139;45.626;6.850;2023-06-22T09:48:18;9.55;;;2.58;;
64710;SDS011;51139;45.626;6.850;2023-06-22T09:50:44;8.98;;;2.30;;
64710;SDS011;51139;45.626;6.850;2023-06-22T09:53:09;11.75;;;2.15;;
64710;SDS011;51139;45.626;6.850;2023-06-22T09:55:34;9.07;;;2.35;;
64710;SDS011;51139;45.626;6.850;2023-06-22T09:58:00;8.57;;;2.35;;
64710;SDS011;51139;45.626;6.850;2023-06-22T10:00:25;9.20;;;2.20;;
64710;SDS011;51139;45.626;6.850;2023-06-22T10:02:51;7.18;;;2.30;;
64710;SDS011;51139;45.626;6.850;2023-06-22T10:05:17;8.18;;;2.15;;
64710;SDS011;51139;45.626;6.850;2023-06-22T10:07:43;12.82;;;2.45;;
64710;SDS011;51139;45.626;6.850;2023-06-22T10:10:09;9.23;;;2.45;;
64710;SDS011;51139;45.626;6.850;2023-06-22T10:12:35;7.50;;;2.60;;
64710;SDS011;51139;45.626;6.850;2023-06-22T10:15:01;8.60;;;2.10;;
64710;SDS011;51139;45.626;6.850;2023-06-22T10:17:26;8.13;;;2.47;;
64710;SDS011;51139;45.626;6.850;2023-06-22T10:19:51;10.38;;;2.33;;
64710;SDS011;51139;45.626;6.850;2023-06-22T10:22:17;8.20;;;2.53;;
64710;SDS011;51139;45.626;6.850;2023-06-22T10:24:42;6.47;;;2.05;;
64710;SDS011;51139;45.626;6.850;2023-06-22T10:27:12;10.77;;;2.47;;
64710;SDS011;51139;45.626;6.850;2023-06-22T10:29:38;20.90;;;3.35;;
64710;SDS011;51139;45.626;6.850;2023-06-22T10:32:04;9.77;;;2.53;;
64710;SDS011;51139;45.626;6.850;2023-06-22T10:34:30;11.52;;;3.08;;
64710;SDS011;51139;45.626;6.850;2023-06-22T10:36:55;12.05;;;2.55;;
64710;SDS011;51139;45.626;6.850;2023-06-22T10:39:20;9.43;;;2.60;;
64710;SDS011;51139;45.626;6.850;2023-06-22T10:41:46;14.07;;;3.17;;
64710;SDS011;51139;45.626;6.850;2023-06-22T10:44:11;9.05;;;2.28;;
64710;SDS011;51139;45.626;6.850;2023-06-22T10:46:37;8.25;;;2.00;;
64710;SDS011;51139;45.626;6.850;2023-06-22T10:49:03;7.32;;;2.20;;
64710;SDS011;51139;45.626;6.850;2023-06-22T10:51:28;8.48;;;2.10;;
64710;SDS011;51139;45.626;6.850;2023-06-22T10:53:53;7.55;;;2.38;;
64710;SDS011;51139;45.626;6.850;2023-06-22T10:56:19;10.40;;;2.72;;
64710;SDS011;51139;45.626;6.850;2023-06-22T10:58:44;8.23;;;2.30;;
64710;SDS011;51139;45.626;6.850;2023-06-22T11:01:10;11.20;;;2.72;;
64710;SDS011;51139;45.626;6.850;2023-06-22T11:03:36;11.65;;;2.55;;
64710;SDS011;51139;45.626;6.850;2023-06-22T11:06:01;11.15;;;2.70;;
64710;SDS011;51139;45.626;6.850;2023-06-22T11:08:27;7.65;;;2.40;;
64710;SDS011;51139;45.626;6.850;2023-06-22T11:10:52;10.45;;;2.80;;
64710;SDS011;51139;45.626;6.850;2023-06-22T11:13:18;10.40;;;2.72;;
64710;SDS011;51139;45.626;6.850;2023-06-22T11:15:43;12.77;;;2.60;;
64710;SDS011;51139;45.626;6.850;2023-06-22T11:18:08;10.90;;;2.95;;
64710;SDS011;51139;45.626;6.850;2023-06-22T11:20:34;12.50;;;3.10;;
64710;SDS011;51139;45.626;6.850;2023-06-22T11:23:03;9.95;;;3.17;;
64710;SDS011;51139;45.626;6.850;2023-06-22T11:25:32;10.57;;;3.25;;
64710;SDS011;51139;45.626;6.850;2023-06-22T11:28:01;9.10;;;3.10;;
64710;SDS011;51139;45.626;6.850;2023-06-22T11:30:27;9.23;;;3.03;;
64710;SDS011;51139;45.626;6.850;2023-06-22T11:32:53;11.73;;;2.95;;
64710;SDS011;51139;45.626;6.850;2023-06-22T11:35:18;10.63;;;3.03;;
64710;SDS011;51139;45.626;6.850;2023-06-22T11:37:43;11.20;;;3.28;;
64710;SDS011;51139;45.626;6.850;2023-06-22T11:40:09;10.13;;;2.70;;
64710;SDS011;51139;45.626;6.850;2023-06-22T11:42:35;12.77;;;3.47;;
64710;SDS011;51139;45.626;6.850;2023-06-22T11:45:00;10.27;;;2.90;;
64710;SDS011;51139;45.626;6.850;2023-06-22T11:47:26;12.00;;;3.83;;
64710;SDS011;51139;45.626;6.850;2023-06-22T11:49:52;9.70;;;3.05;;
64710;SDS011;51139;45.626;6.850;2023-06-22T11:52:17;7.28;;;3.20;;
64710;SDS011;51139;45.626;6.850;2023-06-22T11:54:44;13.00;;;3.28;;
64710;SDS011;51139;45.626;6.850;2023-06-22T11:57:10;7.95;;;3.00;;
64710;SDS011;51139;45.626;6.850;2023-06-22T11:59:36;8.25;;;3.22;;
64710;SDS011;51139;45.626;6.850;2023-06-22T12:02:01;12.93;;;3.55;;
64710;SDS011;51139;45.626;6.850;2023-06-22T12:04:27;12.43;;;4.05;;
64710;SDS011;51139;45.626;6.850;2023-06-22T12:06:52;13.13;;;3.95;;
64710;SDS011;51139;45.626;6.850;2023-06-22T12:09:17;8.05;;;3.72;;
64710;SDS011;51139;45.626;6.850;2023-06-22T12:11:43;12.07;;;3.80;;
64710;SDS011;51139;45.626;6.850;2023-06-22T12:14:08;10.70;;;3.83;;
64710;SDS011;51139;45.626;6.850;2023-06-22T12:16:33;11.98;;;4.03;;
64710;SDS011;51139;45.626;6.850;2023-06-22T12:18:59;13.77;;;4.13;;
64710;SDS011;51139;45.626;6.850;2023-06-22T12:21:24;11.50;;;3.33;;
64710;SDS011;51139;45.626;6.850;2023-06-22T12:23:49;15.02;;;3.35;;
64710;SDS011;51139;45.626;6.850;2023-06-22T12:26:15;10.43;;;4.03;;
64710;SDS011;51139;45.626;6.850;2023-06-22T12:28:41;10.70;;;4.07;;
64710;SDS011;51139;45.626;6.850;2023-06-22T12:31:06;13.18;;;4.63;;
64710;SDS011;51139;45.626;6.850;2023-06-22T12:33:31;12.55;;;5.55;;
64710;SDS011;51139;45.626;6.850;2023-06-22T12:35:57;13.43;;;5.10;;
64710;SDS011;51139;45.626;6.850;2023-06-22T12:38:22;11.18;;;5.57;;
64710;SDS011;51139;45.626;6.850;2023-06-22T12:40:50;16.23;;;4.00;;
64710;SDS011;51139;45.626;6.850;2023-06-22T12:43:15;15.07;;;3.67;;
64710;SDS011;51139;45.626;6.850;2023-06-22T12:45:41;16.08;;;4.15;;
64710;SDS011;51139;45.626;6.850;2023-06-22T12:48:06;15.70;;;4.10;;
64710;SDS011;51139;45.626;6.850;2023-06-22T12:50:33;9.05;;;3.80;;
64710;SDS011;51139;45.626;6.850;2023-06-22T12:52:58;7.97;;;3.30;;
64710;SDS011;51139;45.626;6.850;2023-06-22T12:55:25;7.63;;;3.30;;
64710;SDS011;51139;45.626;6.850;2023-06-22T12:57:50;10.95;;;3.42;;
64710;SDS011;51139;45.626;6.850;2023-06-22T13:00:15;13.43;;;3.20;;
64710;SDS011;51139;45.626;6.850;2023-06-22T13:02:41;13.20;;;4.00;;
64710;SDS011;51139;45.626;6.850;2023-06-22T13:05:07;7.03;;;2.33;;
64710;SDS011;51139;45.626;6.850;2023-06-22T13:07:33;7.90;;;3.10;;
64710;SDS011;51139;45.626;6.850;2023-06-22T13:09:59;12.20;;;3.92;;
64710;SDS011;51139;45.626;6.850;2023-06-22T13:12:24;7.53;;;2.40;;
64710;SDS011;51139;45.626;6.850;2023-06-22T13:14:49;4.95;;;1.63;;
64710;SDS011;51139;45.626;6.850;2023-06-22T13:17:15;4.43;;;1.65;;
64710;SDS011;51139;45.626;6.850;2023-06-22T13:19:40;2.58;;;1.30;;
64710;SDS011;51139;45.626;6.850;2023-06-22T13:22:09;5.07;;;1.50;;
64710;SDS011;51139;45.626;6.850;2023-06-22T13:25:08;4.57;;;1.58;;
64710;SDS011;51139;45.626;6.850;2023-06-22T13:27:37;2.42;;;0.80;;
64710;SDS011;51139;45.626;6.850;2023-06-22T13:30:04;2.15;;;0.73;;
64710;SDS011;51139;45.626;6.850;2023-06-22T13:32:30;1.17;;;0.60;;
64710;SDS011;51139;45.626;6.850;2023-06-22T13:34:56;2.90;;;0.75;;
64710;SDS011;51139;45.626;6.850;2023-06-22T13:37:21;2.40;;;1.00;;
64710;SDS011;51139;45.626;6.850;2023-06-22T13:39:46;4.28;;;1.30;;
64710;SDS011;51139;45.626;6.850;2023-06-22T13:42:12;4.75;;;1.30;;
64710;SDS011;51139;45.626;6.850;2023-06-22T13:44:37;2.08;;;1.00;;
64710;SDS011;51139;45.626;6.850;2023-06-22T13:47:02;4.82;;;0.90;;
64710;SDS011;51139;45.626;6.850;2023-06-22T13:49:29;3.53;;;0.93;;
64710;SDS011;51139;45.626;6.850;2023-06-22T13:51:55;3.50;;;1.27;;
64710;SDS011;51139;45.626;6.850;2023-06-22T13:54:20;3.00;;;1.27;;
64710;SDS011;51139;45.626;6.850;2023-06-22T13:56:46;2.22;;;1.00;;
64710;SDS011;51139;45.626;6.850;2023-06-22T13:59:11;4.35;;;1.40;;
64710;SDS011;51139;45.626;6.850;2023-06-22T14:01:37;4.40;;;1.77;;
64710;SDS011;51139;45.626;6.850;2023-06-22T14:04:04;5.07;;;1.48;;
64710;SDS011;51139;45.626;6.850;2023-06-22T14:06:30;4.47;;;1.55;;
64710;SDS011;51139;45.626;6.850;2023-06-22T14:08:55;4.88;;;1.98;;
64710;SDS011;51139;45.626;6.850;2023-06-22T14:11:21;4.95;;;1.98;;
64710;SDS011;51139;45.626;6.850;2023-06-22T14:13:47;3.00;;;1.52;;
64710;SDS011;51139;45.626;6.850;2023-06-22T14:16:12;5.88;;;1.98;;
64710;SDS011;51139;45.626;6.850;2023-06-22T14:18:37;4.00;;;1.70;;
64710;SDS011;51139;45.626;6.850;2023-06-22T14:21:03;6.80;;;2.53;;
64710;SDS011;51139;45.626;6.850;2023-06-22T14:23:28;3.97;;;1.70;;
64710;SDS011;51139;45.626;6.850;2023-06-22T14:25:53;3.63;;;2.13;;
64710;SDS011;51139;45.626;6.850;2023-06-22T14:28:19;4.35;;;1.90;;
64710;SDS011;51139;45.626;6.850;2023-06-22T14:30:44;6.03;;;2.00;;
64710;SDS011;51139;45.626;6.850;2023-06-22T14:33:10;5.25;;;2.35;;
64710;SDS011;51139;45.626;6.850;2023-06-22T14:35:35;5.10;;;2.13;;
64710;SDS011;51139;45.626;6.850;2023-06-22T14:38:01;5.68;;;2.72;;
64710;SDS011;51139;45.626;6.850;2023-06-22T14:40:26;3.95;;;1.90;;
64710;SDS011;51139;45.626;6.850;2023-06-22T14:42:52;5.60;;;2.25;;
64710;SDS011;51139;45.626;6.850;2023-06-22T14:45:17;4.72;;;2.90;;